MMIA 090240Z 00000KT 8SM SKC 22/16 A3004= 090241

MMIA 090155Z 25010KT 8SM SKC 24/21 A3002= 090155

MMIA 090040Z 25010KT 8SM SKC 24/21 A3001= 090040

MMIA 082348Z 25010KT 8SM SKC 26/21 A2998= 082348

MMIA 082243Z 25010KT 8SM SKC 28/19 A2997= 082243

MMIA 082140Z 25012KT 8SM SKC 29/17 A2997= 082140

MMIA 082053Z 25010KT 8SM SKC 30/16 A2998= 082053

MMIA 081940Z 24010KT 6SM SCT200 30/15 A3000 RMK 8/001= 081943

MMIA 081840Z 24005KT 6SM SCT200 29/16 A3003 RMK 8/001= 081848

MMIA 081740Z 00000KT 6SM SCT200 28/16 A3006 RMK 8/001= 081740

MMIA 081640Z 00000KT 6SM SCT200 26/16 A3008 RMK 8/001= 081643

MMIA 081540Z 00000KT 6SM SCT200 26/14 A3007 RMK 8/001= 081540

MMIA 081440Z 00000KT 6SM SCT200 26/14 A3007 RMK 8/001= 081444

MMIA 081340Z 03005KT 6SM SCT200 20/11 A3005 RMK 8/001= 081343

MMIA 081300Z RTD 00000KT 6SM SCT200 19/11 A3004 RMK 8/001 RTS= 081305

MMIA 080142Z 28008KT 8SM SKC 25/18 A3000= 080143

MMIA 080044Z 28006KT 8SM SKC 25/19 A2999= 080044

MMIA 072340Z 25008KT 8SM SKC 27/18 A2997= 072340

MMIA 072248Z 25008KT 8SM SKC 30/16 A2995= 072248

MMIA 072150Z 25008KT 8SM SKC 30/14 A2995= 072150

MMIA 072040Z 20008KT 8SM SKC 30/12 A2996= 072040

MMIA 071940Z 22006KT 8SM SKC 29/16 A2998= 071940

MMIA 071859Z RTD 22008KT 8SM SKC 29/17 A3001= 071859

MMIA 071755Z 00000KT 8SM SKC 30/16 A3004= 071755

MMIA 071643Z 03008KT 8SM SKC 26/15 A3006= 071643

MMIA 071540Z 00000KT 6SM SCT200 24/13 A3007 RMK 8/001= 071540

MMIA 071440Z 00000KT 6SM SCT200 22/14 A3006 RMK 8/001= 071447

MMIA 071340Z 00000KT 6SM SCT200 22/14 A3004 RMK 8/001= 071341

MMIA 071305Z RTD 00000KT 6SM SCT200 22/14 A3003 RMK 8/001 RTS= 071306

MMIA 070252Z 28008KT 8SM SKC 23/19 A3007= 070252

MMIA 070145Z 25008KT 8SM SKC 24/19 A3006= 070146

MMIA 070049Z 25008KT 8SM SCT200 24/20 A3004 RMK 8/008= 070050

MMIA 062340Z 25010KT 8SM SCT220 27/18 A3002 RMK 8/008= 062340

MMIA 062254Z 25010KT 8SM FEW025 FEW250 29/16 A3001 RMK 8/108= 062254

MMIA 062146Z 20008KT 8SM FEW025 29/16 A3002 RMK 8/100= 062147

MMIA 062042Z 20006KT 8SM FEW020 FEW250 29/26 A3002 RMK 8/108= 062042

MMIA 061840Z 02010KT 6SM SCT200 29/17 A3008 RMK 8/001= 061840

MMIA 061740Z 03005KT 6SM SCT200 29/17 A3010 RMK 8/001= 061748

MMIA 061540Z 00000KT 6SM SKC 26/16 A3013= 061541

MMIA 061440Z 24010KT 6SM SKC 22/16 A3012= 061449

MMIA 061340Z 21005KT 6SM SKC 21/15 A3010= 061341

MMIA 061300Z RTD 00000KT 6SM SKC 21/15 A3008 RMK RTS= 061308

MMIA 060240Z 00000KT 6SM SKC 22/19 A3006= 060241